Time;durP1;ratioP1;P1;durP2;ratioP2;P2;SDS_P1;SDS_P2;PMS_P1;PMS_P2;Temp;Humidity;BMP_temperature;BMP_pressure;BME280_temperature;BME280_humidity;BME280_pressure;Samples;Min_cycle;Max_cycle;Signal;HPM_P1;HPM_P2
2024/03/21 00:00:09;;;;;;;;;;;;;;;25.32;34.94;101652.56;4100332;29;19930;-57
2024/03/21 00:02:10;;;;;;;;;;;;;;;25.32;34.88;101654.38;4100369;29;20412;-57
2024/03/21 00:04:11;;;;;;;;;;;;;;;25.31;34.76;101655.38;4100265;29;20008;-57
2024/03/21 00:06:12;;;;;;;;;;;;;;;25.30;34.98;101664.41;4099787;29;19997;-57
2024/03/21 00:08:13;;;;;;;;;;;;;;;25.27;34.68;101660.16;4100015;29;20297;-57
2024/03/21 00:10:15;;;;;;;;;;;;;;;25.27;34.93;101670.91;4100144;29;19923;-57
2024/03/21 00:12:15;;;;;;;;;;;;;;;25.27;34.80;101676.31;4084436;29;20302;-57
2024/03/21 00:14:16;;;;;;;;;;;;;;;25.27;34.75;101678.16;4099207;28;19922;-57
2024/03/21 00:16:17;;;;;;;;;;;;;;;25.28;35.01;101680.72;4099962;29;20401;-57
2024/03/21 00:18:18;;;;;;;;;;;;;;;25.28;34.89;101683.41;4099750;29;19957;-57
2024/03/21 00:20:19;;;;;;;;;;;;;;;25.28;35.04;101678.03;4099809;29;19922;-58
2024/03/21 00:22:20;;;;;;;;;;;;;;;25.30;34.84;101677.88;4099787;29;19929;-57
2024/03/21 00:24:21;;;;;;;;;;;;;;;25.30;34.96;101681.44;4100037;29;20383;-57
2024/03/21 00:26:22;;;;;;;;;;;;;;;25.31;34.82;101680.47;4084134;29;20440;-56
2024/03/21 00:28:22;;;;;;;;;;;;;;;25.31;34.79;101676.91;4099636;29;19926;-57
2024/03/21 00:30:23;;;;;;;;;;;;;;;25.29;35.15;101678.88;4099626;29;19969;-55
2024/03/21 00:32:24;;;;;;;;;;;;;;;25.28;35.02;101677.19;4099750;29;20005;-57
2024/03/21 00:34:25;;;;;;;;;;;;;;;25.29;34.85;101684.28;4099809;29;20021;-57
2024/03/21 00:36:26;;;;;;;;;;;;;;;25.28;34.79;101682.56;4099321;29;19973;-57
2024/03/21 00:38:27;;;;;;;;;;;;;;;25.27;34.79;101680.84;4099575;29;20352;-57
2024/03/21 00:40:27;;;;;;;;;;;;;;;25.26;34.88;101679.13;4099758;29;19978;-57
2024/03/21 00:42:28;;;;;;;;;;;;;;;25.24;35.12;101676.56;4099673;29;19922;-58
2024/03/21 00:44:30;;;;;;;;;;;;;;;25.24;35.08;101673.00;4099858;29;20385;-57
2024/03/21 00:46:31;;;;;;;;;;;;;;;25.24;34.89;101679.28;4099558;29;19922;-57
2024/03/21 00:48:32;;;;;;;;;;;;;;;25.25;34.92;101678.28;4099451;29;20369;-58
2024/03/21 00:50:32;;;;;;;;;;;;;;;25.26;35.09;101689.91;4099107;29;20021;-58
2024/03/21 00:52:33;;;;;;;;;;;;;;;25.26;34.93;101701.50;4099742;29;19930;-56
2024/03/21 00:54:34;;;;;;;;;;;;;;;25.26;34.78;101706.06;4099540;29;20016;-57
2024/03/21 00:56:35;;;;;;;;;;;;;;;25.27;34.82;101702.38;4099182;29;19922;-57
2024/03/21 00:58:36;;;;;;;;;;;;;;;25.26;34.99;101701.50;4083587;29;19923;-57
2024/03/21 01:00:37;;;;;;;;;;;;;;;25.28;34.99;101709.50;4099370;29;19929;-57
2024/03/21 01:02:39;;;;;;;;;;;;;;;25.26;35.10;101704.22;4099395;29;19973;-55
2024/03/21 01:04:43;;;;;;;;;;;;;;;25.25;34.96;101713.28;4098798;29;20380;-57
2024/03/21 01:06:44;;;;;;;;;;;;;;;25.24;34.99;101718.78;4099473;29;19973;-58
2024/03/21 01:08:45;;;;;;;;;;;;;;;25.24;35.21;101721.47;4099198;29;19926;-58
2024/03/21 01:10:52;;;;;;;;;;;;;;;25.25;34.79;101733.97;4099143;29;19923;-56
2024/03/21 01:12:53;;;;;;;;;;;;;;;25.23;35.22;101728.72;4099108;29;19926;-58
2024/03/21 01:14:53;;;;;;;;;;;;;;;25.23;35.16;101726.00;4099243;29;20374;-57
2024/03/21 01:16:54;;;;;;;;;;;;;;;25.23;34.90;101723.31;4099078;29;20330;-56
2024/03/21 01:18:55;;;;;;;;;;;;;;;25.23;34.96;101723.31;4098685;29;20295;-56
2024/03/21 01:20:56;;;;;;;;;;;;;;;25.24;35.18;101734.94;4098965;29;20378;-56
2024/03/21 01:22:58;;;;;;;;;;;;;;;25.24;35.12;101732.25;4098807;29;20036;-57
2024/03/21 01:24:59;;;;;;;;;;;;;;;25.24;35.29;101748.41;4098727;28;19928;-58
2024/03/21 01:26:59;;;;;;;;;;;;;;;25.22;35.37;101748.53;4098806;29;19922;-58
2024/03/21 01:29:00;;;;;;;;;;;;;;;25.23;35.29;101742.16;4099014;29;19930;-57
2024/03/21 01:31:14;;;;;;;;;;;;;;;25.24;35.10;101748.41;4098901;29;20473;-57
2024/03/21 01:33:14;;;;;;;;;;;;;;;25.23;35.16;101735.94;4098552;29;19923;-58
2024/03/21 01:35:15;;;;;;;;;;;;;;;25.21;35.16;101741.44;4098824;29;19965;-58
2024/03/21 01:37:16;;;;;;;;;;;;;;;25.21;35.37;101757.59;4083050;29;19954;-58
2024/03/21 01:39:17;;;;;;;;;;;;;;;25.22;35.04;101766.53;4098788;29;19923;-58
2024/03/21 01:41:18;;;;;;;;;;;;;;;25.20;35.08;101769.31;4098721;29;19976;-57
2024/03/21 01:43:24;;;;;;;;;;;;;;;25.19;35.12;101763.09;4098540;29;19926;-58
2024/03/21 01:45:27;;;;;;;;;;;;;;;25.19;35.19;101771.19;4098648;29;20309;-58
2024/03/21 01:47:27;;;;;;;;;;;;;;;25.21;35.08;101771.03;4098592;29;20390;-57
2024/03/21 01:49:28;;;;;;;;;;;;;;;25.20;35.29;101777.41;4098259;29;19922;-58
2024/03/21 01:51:29;;;;;;;;;;;;;;;25.19;35.48;101781.94;4098419;29;19923;-58
2024/03/21 01:53:31;;;;;;;;;;;;;;;25.19;35.37;101786.50;4098544;29;20325;-60
2024/03/21 01:55:32;;;;;;;;;;;;;;;25.18;35.21;101790.16;4098530;29;19926;-58
2024/03/21 01:57:33;;;;;;;;;;;;;;;25.18;35.20;101787.47;4098591;29;19930;-58
2024/03/21 01:59:34;;;;;;;;;;;;;;;25.19;35.13;101791.88;4098616;29;19929;-57
2024/03/21 02:01:36;;;;;;;;;;;;;;;25.19;35.19;101794.56;4098385;29;20394;-57
2024/03/21 02:03:37;;;;;;;;;;;;;;;25.01;35.36;101759.22;4098122;29;19922;-57
2024/03/21 02:05:38;;;;;;;;;;;;;;;25.19;35.23;101789.19;4098443;29;19922;-57
2024/03/21 02:07:38;;;;;;;;;;;;;;;25.19;35.08;101787.34;4098387;29;19981;-58
2024/03/21 02:09:39;;;;;;;;;;;;;;;25.20;35.48;101790.88;4098354;29;19926;-57
2024/03/21 02:11:40;;;;;;;;;;;;;;;25.19;35.11;101802.66;4098366;29;19958;-57
2024/03/21 02:13:41;;;;;;;;;;;;;;;25.14;35.11;101799.44;4098275;29;19923;-56
2024/03/21 02:15:42;;;;;;;;;;;;;;;25.13;35.26;101792.34;4098287;29;19926;-56
2024/03/21 02:17:43;;;;;;;;;;;;;;;25.15;35.05;101783.19;4097851;29;19965;-55
2024/03/21 02:19:44;;;;;;;;;;;;;;;25.15;35.39;101783.19;4098132;29;20426;-56
2024/03/21 02:24:06;;;;;;;;;;;;;;;25.14;35.41;101773.41;4098333;29;19944;-56
2024/03/21 02:26:07;;;;;;;;;;;;;;;25.14;35.25;101785.97;4098337;29;20001;-56
2024/03/21 02:28:08;;;;;;;;;;;;;;;25.15;35.16;101788.56;4098297;29;20070;-56
2024/03/21 02:30:10;;;;;;;;;;;;;;;25.14;35.29;101789.53;4098264;29;20295;-56
2024/03/21 02:32:11;;;;;;;;;;;;;;;25.15;35.26;101790.38;4097999;29;19932;-54
2024/03/21 02:34:12;;;;;;;;;;;;;;;25.14;35.28;101785.97;4098299;29;20312;-54
2024/03/21 02:36:13;;;;;;;;;;;;;;;25.14;35.11;101792.25;4098454;28;19922;-56
2024/03/21 02:38:13;;;;;;;;;;;;;;;25.16;35.24;101786.72;4100954;29;20405;-56
2024/03/21 02:40:14;;;;;;;;;;;;;;;25.14;35.25;101799.44;4101397;29;20304;-55
2024/03/21 02:42:15;;;;;;;;;;;;;;;25.13;35.22;101806.69;4101442;29;19922;-56
2024/03/21 02:44:16;;;;;;;;;;;;;;;25.13;35.35;101797.72;4101443;29;20301;-56
2024/03/21 02:46:17;;;;;;;;;;;;;;;25.09;35.23;101796.28;4100895;29;19923;-56
2024/03/21 02:48:17;;;;;;;;;;;;;;;25.08;35.17;101797.25;4101225;29;19995;-55
2024/03/21 02:50:18;;;;;;;;;;;;;;;25.08;35.14;101794.56;4101317;29;19953;-56
2024/03/21 02:52:19;;;;;;;;;;;;;;;25.09;35.24;101805.19;4085522;29;19923;-57
2024/03/21 02:54:20;;;;;;;;;;;;;;;25.10;35.05;101801.53;4101203;29;20410;-57
2024/03/21 02:56:20;;;;;;;;;;;;;;;25.07;35.13;101801.78;4101216;29;20377;-57
2024/03/21 02:58:21;;;;;;;;;;;;;;;25.08;35.10;101800.81;4100853;29;19945;-57
2024/03/21 03:00:22;;;;;;;;;;;;;;;25.10;35.03;101806.06;4100912;29;19934;-56
2024/03/21 03:02:25;;;;;;;;;;;;;;;25.08;35.12;101799.94;4101219;29;19926;-56
2024/03/21 03:04:25;;;;;;;;;;;;;;;25.10;35.40;101800.69;4101170;29;19926;-58
2024/03/21 03:06:26;;;;;;;;;;;;;;;25.09;35.05;101796.28;4101042;29;19922;-57
2024/03/21 03:08:27;;;;;;;;;;;;;;;25.08;35.34;101787.34;4101059;29;19985;-56
2024/03/21 03:10:28;;;;;;;;;;;;;;;25.08;35.09;101790.03;4100909;29;20425;-57
2024/03/21 03:12:29;;;;;;;;;;;;;;;25.08;35.03;101794.56;4100840;29;19923;-56
2024/03/21 03:14:29;;;;;;;;;;;;;;;25.07;35.17;101791.03;4101152;29;20018;-56
2024/03/21 03:16:30;;;;;;;;;;;;;;;25.04;35.23;101800.19;4100596;29;19926;-57
2024/03/21 03:18:31;;;;;;;;;;;;;;;25.02;35.09;101809.38;4100852;29;19946;-56
2024/03/21 03:20:32;;;;;;;;;;;;;;;25.01;35.18;101815.75;4100739;29;19926;-56
2024/03/21 03:22:32;;;;;;;;;;;;;;;25.02;35.44;101818.31;4100961;29;19922;-56
2024/03/21 03:24:33;;;;;;;;;;;;;;;25.03;35.12;101819.13;4100873;29;19923;-57
2024/03/21 03:26:34;;;;;;;;;;;;;;;25.01;35.12;101811.19;4100951;29;20005;-56
2024/03/21 03:28:35;;;;;;;;;;;;;;;25.03;34.99;101814.63;4100820;29;19969;-56
2024/03/21 03:30:36;;;;;;;;;;;;;;;25.01;35.08;101824.66;4100321;29;19926;-56
2024/03/21 03:32:47;;;;;;;;;;;;;;;24.99;35.10;101829.28;4100833;29;19926;-56
2024/03/21 03:37:07;;;;;;;;;;;;;;;25.00;35.34;101835.56;4100424;29;19926;-56
2024/03/21 03:39:08;;;;;;;;;;;;;;;25.02;35.10;101836.28;4068900;29;20025;-56
2024/03/21 03:41:09;;;;;;;;;;;;;;;25.02;34.98;101841.69;4100744;29;19929;-56
2024/03/21 03:43:10;;;;;;;;;;;;;;;25.01;35.27;101842.66;4100413;29;19922;-57
2024/03/21 03:45:10;;;;;;;;;;;;;;;25.01;35.07;101842.66;4100137;29;19977;-57
2024/03/21 03:47:11;;;;;;;;;;;;;;;25.01;35.18;101851.56;4100316;29;20414;-58
2024/03/21 03:49:12;;;;;;;;;;;;;;;24.98;35.07;101849.13;4099135;28;19930;-57
2024/03/21 03:51:13;;;;;;;;;;;;;;;24.96;35.16;101851.09;4100148;29;19922;-57
2024/03/21 03:53:13;;;;;;;;;;;;;;;24.95;35.09;101857.44;4100415;29;19923;-57
2024/03/21 03:55:14;;;;;;;;;;;;;;;24.93;35.10;101862.06;4100189;29;20484;-57
2024/03/21 03:57:15;;;;;;;;;;;;;;;24.94;35.10;101861.09;4100059;29;19930;-57
2024/03/21 03:59:16;;;;;;;;;;;;;;;24.94;35.18;101861.09;4100078;29;19978;-57
2024/03/21 04:01:17;;;;;;;;;;;;;;;24.94;35.15;101863.78;4084242;29;19947;-57
2024/03/21 04:03:18;;;;;;;;;;;;;;;24.95;35.25;101861.97;4100077;29;19933;-57
2024/03/21 04:05:18;;;;;;;;;;;;;;;24.96;35.25;101882.50;4100252;29;19922;-57
2024/03/21 04:07:21;;;;;;;;;;;;;;;24.95;35.09;101873.59;4099964;29;19923;-57
2024/03/21 04:09:22;;;;;;;;;;;;;;;24.98;35.09;101881.44;4100054;29;19923;-57
2024/03/21 04:11:22;;;;;;;;;;;;;;;24.96;35.08;101882.50;4100222;29;19981;-57
2024/03/21 04:13:23;;;;;;;;;;;;;;;24.96;35.45;101891.47;4099890;29;19954;-57
2024/03/21 04:15:24;;;;;;;;;;;;;;;24.96;35.00;101886.06;4100148;29;20271;-56
2024/03/21 04:17:25;;;;;;;;;;;;;;;24.94;35.04;101879.09;4083974;29;19962;-57
2024/03/21 04:19:26;;;;;;;;;;;;;;;24.94;35.24;101888.03;4099925;29;19926;-56
2024/03/21 04:21:27;;;;;;;;;;;;;;;24.92;35.16;101897.19;4099813;29;19927;-57
2024/03/21 04:23:27;;;;;;;;;;;;;;;24.89;35.18;101898.28;4099793;29;20468;-57
2024/03/21 04:25:29;;;;;;;;;;;;;;;24.90;35.38;101909.91;4099871;29;19992;-56
2024/03/21 04:27:30;;;;;;;;;;;;;;;24.88;35.32;101912.72;4099454;29;19932;-56
2024/03/21 04:29:30;;;;;;;;;;;;;;;24.89;35.00;101903.69;4100086;29;19923;-57
2024/03/21 04:31:31;;;;;;;;;;;;;;;24.90;35.25;101907.22;4099695;29;19926;-56
2024/03/21 04:33:32;;;;;;;;;;;;;;;24.88;35.00;101915.41;4099751;29;19932;-56
2024/03/21 04:35:33;;;;;;;;;;;;;;;24.89;35.11;101922.50;4099881;29;19941;-56
2024/03/21 04:37:34;;;;;;;;;;;;;;;24.88;35.17;101923.47;4099680;29;20017;-56
2024/03/21 04:39:35;;;;;;;;;;;;;;;24.88;34.99;101931.56;4099662;29;20036;-56
2024/03/21 04:41:35;;;;;;;;;;;;;;;24.90;35.21;101937.69;4099407;29;19922;-56
2024/03/21 04:43:36;;;;;;;;;;;;;;;24.89;34.94;101933.28;4099508;29;19995;-56
2024/03/21 04:45:39;;;;;;;;;;;;;;;24.90;35.04;101923.34;4099582;29;19922;-56
2024/03/21 04:47:40;;;;;;;;;;;;;;;24.89;34.88;101927.91;4083726;29;19929;-57
2024/03/21 04:49:40;;;;;;;;;;;;;;;24.89;35.05;101922.50;4099728;29;19930;-57
2024/03/21 04:51:41;;;;;;;;;;;;;;;24.68;35.17;101887.34;4099258;29;19957;-57
2024/03/21 04:53:42;;;;;;;;;;;;;;;24.83;34.85;101918.44;4099468;29;20008;-56
2024/03/21 04:55:43;;;;;;;;;;;;;;;24.82;34.95;101930.19;4099181;29;20013;-56
2024/03/21 04:57:45;;;;;;;;;;;;;;;24.81;35.12;101923.13;4099205;29;19929;-56
2024/03/21 04:59:46;;;;;;;;;;;;;;;24.84;35.09;101916.63;4098911;28;19930;-57
2024/03/21 05:01:48;;;;;;;;;;;;;;;24.82;34.89;101922.13;4099557;29;19922;-56
2024/03/21 05:03:48;;;;;;;;;;;;;;;24.80;35.02;101929.47;4099186;29;20318;-56
2024/03/21 05:05:49;;;;;;;;;;;;;;;24.81;35.00;101933.00;4099530;29;20005;-56
2024/03/21 05:07:50;;;;;;;;;;;;;;;24.81;34.88;101943.75;4099369;29;20005;-57
2024/03/21 05:09:51;;;;;;;;;;;;;;;24.83;35.10;101941.81;4099271;29;19961;-56
2024/03/21 05:11:52;;;;;;;;;;;;;;;24.82;34.85;101950.88;4098913;29;20008;-57
2024/03/21 05:13:52;;;;;;;;;;;;;;;24.82;34.84;101950.88;4099111;29;19927;-57
2024/03/21 05:15:53;;;;;;;;;;;;;;;24.82;35.18;101958.94;4099076;29;20002;-56
2024/03/21 05:17:54;;;;;;;;;;;;;;;24.82;34.83;101954.41;4098995;29;20049;-58
2024/03/21 05:19:55;;;;;;;;;;;;;;;24.82;34.89;101954.41;4098966;29;19922;-56
2024/03/21 05:21:56;;;;;;;;;;;;;;;24.81;35.02;101957.22;4099103;29;19930;-56
2024/03/21 05:23:57;;;;;;;;;;;;;;;24.79;34.95;101954.66;4099090;29;19922;-57
2024/03/21 05:25:58;;;;;;;;;;;;;;;24.77;34.87;101961.13;4098746;29;20322;-55
2024/03/21 05:27:59;;;;;;;;;;;;;;;24.75;34.93;101950.47;4083264;29;19923;-56
2024/03/21 05:30:00;;;;;;;;;;;;;;;24.76;35.13;101959.41;4099100;29;19969;-56
2024/03/21 05:32:01;;;;;;;;;;;;;;;24.77;35.13;101961.13;4098971;29;19988;-56
2024/03/21 05:34:02;;;;;;;;;;;;;;;24.75;34.88;101968.44;4098986;29;19922;-56
2024/03/21 05:36:03;;;;;;;;;;;;;;;24.72;35.03;101967.69;4099077;29;19950;-55
2024/03/21 05:38:04;;;;;;;;;;;;;;;24.73;34.87;101976.66;4098615;29;20376;-56
2024/03/21 05:40:05;;;;;;;;;;;;;;;24.73;34.91;101987.41;4082687;29;19923;-56
2024/03/21 05:42:06;;;;;;;;;;;;;;;24.73;34.76;101990.09;4098750;29;19927;-56
2024/03/21 05:44:07;;;;;;;;;;;;;;;24.74;34.85;101993.63;4098797;29;19927;-57
2024/03/21 05:46:08;;;;;;;;;;;;;;;24.74;35.04;101991.81;4098593;29;19989;-56
2024/03/21 05:48:09;;;;;;;;;;;;;;;24.72;34.87;101996.44;4098496;29;19929;-56
2024/03/21 05:50:09;;;;;;;;;;;;;;;24.72;34.85;101994.59;4098482;29;19922;-56
2024/03/21 05:52:10;;;;;;;;;;;;;;;24.71;34.94;102000.13;4082870;29;19922;-55
2024/03/21 05:54:13;;;;;;;;;;;;;;;24.70;34.95;102004.66;4082590;29;20017;-55
2024/03/21 05:56:14;;;;;;;;;;;;;;;24.67;34.91;102002.19;4082653;29;20001;-56
2024/03/21 05:58:15;;;;;;;;;;;;;;;24.66;35.15;102015.75;4082621;29;20326;-56
2024/03/21 06:00:17;;;;;;;;;;;;;;;24.66;35.13;102019.28;4082933;29;19930;-56
2024/03/21 06:02:18;;;;;;;;;;;;;;;24.67;35.09;102009.41;4082567;29;19929;-56
2024/03/21 06:04:19;;;;;;;;;;;;;;;24.68;34.78;102006.59;4082804;29;20017;-58
2024/03/21 06:06:19;;;;;;;;;;;;;;;24.67;34.73;102004.03;4066889;29;19994;-57
2024/03/21 06:08:20;;;;;;;;;;;;;;;24.66;34.78;102010.38;4082546;29;20016;-57
2024/03/21 06:10:21;;;;;;;;;;;;;;;24.69;34.92;102015.50;4082267;29;19958;-57
2024/03/21 06:12:22;;;;;;;;;;;;;;;24.68;34.79;102014.66;4081916;29;20283;-56
2024/03/21 06:14:22;;;;;;;;;;;;;;;24.69;34.97;102011.00;4082545;29;20021;-56
2024/03/21 06:16:23;;;;;;;;;;;;;;;24.68;34.96;102013.78;4082491;29;20335;-55
2024/03/21 06:18:24;;;;;;;;;;;;;;;24.68;34.80;102013.78;4082578;29;19923;-55
2024/03/21 06:20:26;;;;;;;;;;;;;;;24.67;34.91;102018.31;4082654;29;19989;-56
2024/03/21 06:22:27;;;;;;;;;;;;;;;24.66;34.84;102024.66;4082355;29;20318;-54
2024/03/21 06:24:28;;;;;;;;;;;;;;;24.67;34.65;102031.75;4082141;29;19923;-55
2024/03/21 06:26:29;;;;;;;;;;;;;;;24.65;34.67;102027.44;4082519;29;19929;-57
2024/03/21 06:28:30;;;;;;;;;;;;;;;24.64;34.82;102039.19;4082573;29;19923;-56
2024/03/21 06:30:31;;;;;;;;;;;;;;;24.62;34.70;102039.28;4082369;29;20333;-57
2024/03/21 06:32:32;;;;;;;;;;;;;;;24.60;34.99;102041.22;4082165;29;20433;-59
2024/03/21 06:34:34;;;;;;;;;;;;;;;24.61;34.93;102042.97;4082548;29;19926;-57
2024/03/21 06:36:35;;;;;;;;;;;;;;;24.61;34.69;102042.97;4082496;29;19922;-57
2024/03/21 06:38:36;;;;;;;;;;;;;;;24.62;34.91;102044.69;4082085;29;19930;-57
2024/03/21 06:40:37;;;;;;;;;;;;;;;24.63;34.71;102046.41;4082437;29;20329;-57
2024/03/21 06:42:38;;;;;;;;;;;;;;;24.63;34.69;102045.53;4082606;29;19930;-57
2024/03/21 06:44:38;;;;;;;;;;;;;;;24.64;34.74;102044.56;4082204;29;19978;-57
2024/03/21 06:46:40;;;;;;;;;;;;;;;24.65;34.66;102057.03;4082101;29;19969;-57
2024/03/21 06:48:41;;;;;;;;;;;;;;;24.64;34.67;102058.88;4082188;29;19923;-56
2024/03/21 06:50:42;;;;;;;;;;;;;;;24.65;34.70;102060.56;4086311;29;19977;-57
2024/03/21 06:52:50;;;;;;;;;;;;;;;24.63;34.76;102062.53;4097706;29;19926;-56
2024/03/21 06:54:51;;;;;;;;;;;;;;;24.62;35.03;102068.00;4097818;29;19926;-57
2024/03/21 06:56:52;;;;;;;;;;;;;;;24.61;34.93;102067.16;4098122;29;20014;-57
2024/03/21 06:58:53;;;;;;;;;;;;;;;24.59;34.95;102071.78;4098161;29;20401;-58
2024/03/21 07:00:54;;;;;;;;;;;;;;;24.58;34.87;102077.28;4098019;29;20025;-57
2024/03/21 07:02:58;;;;;;;;;;;;;;;24.57;34.69;102079.13;4097837;29;19922;-57
2024/03/21 07:04:58;;;;;;;;;;;;;;;24.58;34.53;102082.66;4097969;29;19977;-57
2024/03/21 07:06:59;;;;;;;;;;;;;;;24.59;34.60;102082.56;4097591;29;20326;-57
2024/03/21 07:09:00;;;;;;;;;;;;;;;24.59;34.76;102084.38;4097965;29;20472;-57
2024/03/21 07:11:01;;;;;;;;;;;;;;;24.56;34.87;102091.72;4097847;29;19922;-57
2024/03/21 07:13:02;;;;;;;;;;;;;;;24.58;34.65;102082.66;4097982;29;19929;-57
2024/03/21 07:15:03;;;;;;;;;;;;;;;24.58;34.65;102091.59;4098038;29;19972;-57
2024/03/21 07:17:04;;;;;;;;;;;;;;;24.60;34.93;102099.56;4098104;29;19942;-56
2024/03/21 07:19:05;;;;;;;;;;;;;;;24.58;34.94;102099.66;4097969;29;20406;-57
2024/03/21 07:21:05;;;;;;;;;;;;;;;24.59;34.68;102101.38;4097503;29;20302;-57
2024/03/21 07:23:07;;;;;;;;;;;;;;;24.63;34.79;102110.97;4098750;28;19923;-56
2024/03/21 07:25:08;;;;;;;;;;;;;;;24.65;34.52;102113.53;4100953;29;19923;-56
2024/03/21 07:27:08;;;;;;;;;;;;;;;24.66;34.55;102120.66;4100692;29;19926;-57
2024/03/21 07:29:09;;;;;;;;;;;;;;;24.68;34.38;102127.66;4100583;29;19923;-55
2024/03/21 07:31:10;;;;;;;;;;;;;;;24.67;34.69;102131.31;4100756;29;19922;-57
2024/03/21 07:33:11;;;;;;;;;;;;;;;24.68;34.55;102141.09;4100591;29;19922;-57
2024/03/21 07:35:12;;;;;;;;;;;;;;;24.67;34.43;102142.06;4100861;29;20337;-56
2024/03/21 07:37:13;;;;;;;;;;;;;;;24.69;34.56;102152.69;4100392;29;19934;-56
2024/03/21 07:39:14;;;;;;;;;;;;;;;24.69;34.38;102153.59;4100420;29;19930;-56
2024/03/21 07:41:14;;;;;;;;;;;;;;;24.69;34.41;102156.28;4100602;29;19922;-55
2024/03/21 07:43:15;;;;;;;;;;;;;;;24.71;34.34;102165.06;4100464;29;19922;-56
2024/03/21 07:45:16;;;;;;;;;;;;;;;24.71;34.15;102167.75;4100458;29;19958;-55
2024/03/21 07:47:17;;;;;;;;;;;;;;;24.75;34.34;102171.09;4100556;29;19922;-56
2024/03/21 07:49:17;;;;;;;;;;;;;;;24.77;34.28;102173.69;4100567;29;20021;-57
2024/03/21 07:51:18;;;;;;;;;;;;;;;24.76;34.10;102170.13;4100150;29;20342;-56
2024/03/21 07:53:19;;;;;;;;;;;;;;;24.77;34.17;102174.53;4100475;29;19923;-55
2024/03/21 07:55:20;;;;;;;;;;;;;;;24.78;34.37;102175.41;4100365;29;19950;-57
2024/03/21 07:57:21;;;;;;;;;;;;;;;24.77;34.51;102174.53;4100463;29;19922;-57
2024/03/21 07:59:23;;;;;;;;;;;;;;;24.77;34.41;102179.91;4100337;29;20307;-55
2024/03/21 08:01:27;;;;;;;;;;;;;;;24.75;34.15;102181.00;4100366;29;19927;-56
2024/03/21 08:03:28;;;;;;;;;;;;;;;24.78;34.34;102178.09;4100137;29;20390;-57
2024/03/21 08:05:29;;;;;;;;;;;;;;;24.76;34.16;102183.56;4099893;29;19926;-58
2024/03/21 08:07:29;;;;;;;;;;;;;;;24.76;34.46;102178.19;4100515;29;19929;-56
2024/03/21 08:09:30;;;;;;;;;;;;;;;24.76;34.23;102183.56;4100247;29;19926;-57
2024/03/21 08:11:31;;;;;;;;;;;;;;;24.74;34.32;102184.66;4100233;29;20332;-55
2024/03/21 08:13:32;;;;;;;;;;;;;;;24.74;34.52;102190.91;4100267;29;19922;-56
2024/03/21 08:15:32;;;;;;;;;;;;;;;24.76;34.17;102188.94;4100245;29;19923;-57
2024/03/21 08:17:33;;;;;;;;;;;;;;;24.78;34.19;102189.72;4100135;29;19945;-57
2024/03/21 08:19:34;;;;;;;;;;;;;;;24.79;34.39;102183.34;4099584;29;19973;-57
2024/03/21 08:21:35;;;;;;;;;;;;;;;24.80;34.20;102190.47;4084151;29;19923;-56
2024/03/21 08:23:36;;;;;;;;;;;;;;;24.82;34.15;102198.41;4100087;29;19923;-56
2024/03/21 08:25:36;;;;;;;;;;;;;;;24.83;33.99;102200.16;4099710;29;19923;-57
2024/03/21 08:27:37;;;;;;;;;;;;;;;24.84;34.25;102197.31;4099946;29;20374;-54
2024/03/21 08:29:38;;;;;;;;;;;;;;;24.85;34.07;102201.75;4099713;29;20310;-56
2024/03/21 08:31:39;;;;;;;;;;;;;;;24.83;33.96;102198.28;4099764;29;19972;-56
2024/03/21 08:33:40;;;;;;;;;;;;;;;24.83;34.23;102209.06;4099497;29;19970;-55
2024/03/21 08:35:41;;;;;;;;;;;;;;;24.83;34.37;102197.44;4098833;28;19965;-55
2024/03/21 08:37:42;;;;;;;;;;;;;;;24.81;34.20;102207.47;4099720;29;19971;-57
2024/03/21 08:39:43;;;;;;;;;;;;;;;24.82;34.08;102203.81;4099818;29;19929;-57
2024/03/21 08:41:44;;;;;;;;;;;;;;;24.82;34.00;102203.81;4099520;29;19969;-57
2024/03/21 08:43:48;;;;;;;;;;;;;;;24.83;34.05;102203.69;4099773;29;19931;-57
2024/03/21 08:45:49;;;;;;;;;;;;;;;24.83;34.17;102202.84;4099697;29;19932;-58
2024/03/21 08:47:50;;;;;;;;;;;;;;;24.82;34.08;102207.34;4099592;29;19922;-58
2024/03/21 08:49:51;;;;;;;;;;;;;;;24.85;34.08;102209.81;4099288;29;19926;-58
2024/03/21 08:51:53;;;;;;;;;;;;;;;24.84;34.42;102216.16;4099348;29;19926;-57
2024/03/21 08:53:54;;;;;;;;;;;;;;;24.85;34.14;102225.97;4099449;29;19968;-57
2024/03/21 08:55:55;;;;;;;;;;;;;;;24.86;33.98;102225.00;4099527;29;20013;-58
2024/03/21 08:57:56;;;;;;;;;;;;;;;24.86;34.32;102221.44;4099204;29;20412;-58
2024/03/21 08:59:56;;;;;;;;;;;;;;;24.87;34.05;102228.53;4099465;29;19926;-58
2024/03/21 09:01:57;;;;;;;;;;;;;;;24.87;34.29;102228.53;4099440;29;19970;-58
2024/03/21 09:03:58;;;;;;;;;;;;;;;24.86;34.40;102221.44;4099222;29;19922;-56
2024/03/21 09:05:59;;;;;;;;;;;;;;;24.86;34.29;102222.31;4099326;29;19986;-56
2024/03/21 09:08:00;;;;;;;;;;;;;;;24.85;33.99;102219.75;4083327;29;20021;-57
2024/03/21 09:10:00;;;;;;;;;;;;;;;24.86;34.26;102224.13;4099555;28;19922;-57
2024/03/21 09:12:02;;;;;;;;;;;;;;;24.85;34.14;102219.75;4099175;29;20378;-57
2024/03/21 09:14:03;;;;;;;;;;;;;;;24.86;34.25;102225.00;4099278;29;20394;-57
2024/03/21 09:16:07;;;;;;;;;;;;;;;24.85;34.44;102220.59;4099253;29;19934;-57
2024/03/21 09:18:09;;;;;;;;;;;;;;;24.86;34.37;102224.13;4098546;29;19922;-57
2024/03/21 09:20:09;;;;;;;;;;;;;;;24.87;34.22;102228.53;4099227;29;19922;-57
2024/03/21 09:22:10;;;;;;;;;;;;;;;24.88;34.29;102233.78;4099025;29;19985;-57
2024/03/21 09:24:12;;;;;;;;;;;;;;;24.89;34.38;102223.91;4099019;29;20405;-58
2024/03/21 09:26:13;;;;;;;;;;;;;;;24.92;34.07;102233.59;4098852;29;19929;-57
2024/03/21 09:28:14;;;;;;;;;;;;;;;24.91;34.08;102235.44;4099134;29;20025;-57
2024/03/21 09:30:15;;;;;;;;;;;;;;;24.90;34.11;102231.03;4099146;29;19922;-57
2024/03/21 09:32:16;;;;;;;;;;;;;;;24.91;34.36;102234.56;4098600;29;20009;-58
2024/03/21 09:34:16;;;;;;;;;;;;;;;24.91;34.20;102231.88;4098746;29;19923;-57
2024/03/21 09:36:17;;;;;;;;;;;;;;;24.91;34.10;102230.06;4098646;29;19977;-60
2024/03/21 09:38:18;;;;;;;;;;;;;;;24.91;34.08;102234.56;4098929;29;19922;-57
2024/03/21 09:40:20;;;;;;;;;;;;;;;24.88;34.08;102228.41;4098647;29;19986;-57
2024/03/21 09:42:21;;;;;;;;;;;;;;;24.90;34.58;102241.78;4098832;29;19933;-57
2024/03/21 09:44:22;;;;;;;;;;;;;;;24.88;34.52;102239.19;4098794;29;19922;-58
2024/03/21 09:46:23;;;;;;;;;;;;;;;24.89;34.28;102240.06;4098288;28;20026;-58
2024/03/21 09:48:24;;;;;;;;;;;;;;;24.91;34.06;102235.44;4098925;29;19973;-57
2024/03/21 09:50:25;;;;;;;;;;;;;;;24.88;34.34;102235.66;4098406;29;19922;-56
2024/03/21 09:52:26;;;;;;;;;;;;;;;24.89;34.11;102237.38;4098735;29;20073;-56
2024/03/21 09:54:27;;;;;;;;;;;;;;;24.91;34.17;102240.81;4098847;29;19923;-57
2024/03/21 09:56:28;;;;;;;;;;;;;;;24.93;34.40;102240.69;4098485;29;19978;-56
2024/03/21 09:58:29;;;;;;;;;;;;;;;24.93;34.34;102238.00;4098398;29;19923;-56
2024/03/21 10:00:30;;;;;;;;;;;;;;;24.96;34.37;102251.22;4098591;29;20029;-57
2024/03/21 10:02:30;;;;;;;;;;;;;;;24.96;34.48;102246.72;4098140;29;19969;-57
2024/03/21 10:04:40;;;;;;;;;;;;;;;24.97;33.95;102251.13;4098383;29;19922;-56
2024/03/21 10:06:47;;;;;;;;;;;;;;;24.96;34.08;102245.84;4098409;29;19923;-57
2024/03/21 10:08:48;;;;;;;;;;;;;;;24.95;34.31;102247.69;4098172;29;19937;-57
2024/03/21 10:10:48;;;;;;;;;;;;;;;24.94;34.15;102247.81;4097508;29;19934;-57
2024/03/21 10:12:50;;;;;;;;;;;;;;;24.92;34.16;102255.97;4098296;29;19972;-57
2024/03/21 10:14:55;;;;;;;;;;;;;;;24.90;34.27;102259.75;4097779;29;19932;-58
2024/03/21 10:16:56;;;;;;;;;;;;;;;24.86;34.27;102259.97;4097799;29;20302;-54
2024/03/21 10:18:58;;;;;;;;;;;;;;;24.81;34.17;102258.59;4098448;29;19926;-56
2024/03/21 10:20:59;;;;;;;;;;;;;;;24.71;34.18;102259.22;4098363;29;19929;-58
2024/03/21 10:23:00;;;;;;;;;;;;;;;24.68;33.98;102253.22;4097897;29;20401;-57
2024/03/21 10:25:04;;;;;;;;;;;;;;;24.65;34.30;102259.63;4098237;29;19930;-57